createdAt,value
2018-09-28T00:03:16.428Z,3.98
2018-09-28T00:36:51.172Z,5.75
2018-09-28T00:39:27.095Z,5.33
2018-09-28T00:42:03.189Z,6.07
2018-09-28T00:44:39.055Z,7.30
2018-09-28T00:47:15.131Z,7.20
2018-09-28T00:49:51.005Z,7.57
2018-09-28T00:52:27.727Z,8.10
2018-09-28T00:55:03.489Z,6.93
2018-09-28T00:57:39.404Z,5.23
2018-09-28T01:00:15.187Z,4.13
2018-09-28T01:02:51.036Z,4.53
2018-09-28T01:05:26.802Z,3.53
2018-09-28T01:08:02.588Z,4.00
2018-09-28T01:10:38.520Z,6.70
2018-09-28T01:13:14.455Z,6.43
2018-09-28T01:15:50.370Z,7.40
2018-09-28T01:18:26.065Z,6.53
2018-09-28T01:21:01.836Z,6.83
2018-09-28T01:23:37.672Z,6.77
2018-09-28T01:26:13.508Z,5.60
2018-09-28T01:28:49.300Z,5.63
2018-09-28T01:31:25.064Z,5.03
2018-09-28T01:34:00.895Z,6.67
2018-09-28T01:36:36.705Z,6.73
2018-09-28T01:39:12.633Z,6.57
2018-09-28T01:41:48.432Z,6.07
2018-09-28T01:44:24.257Z,7.30
2018-09-28T01:47:00.069Z,13.30
2018-09-28T01:49:35.913Z,6.77
2018-09-28T01:52:11.719Z,5.77
2018-09-28T01:54:47.581Z,4.70
2018-09-28T01:57:23.551Z,4.83
2018-09-28T01:59:59.475Z,5.17
2018-09-28T02:02:35.372Z,5.57
2018-09-28T02:05:11.391Z,5.93
2018-09-28T02:07:47.374Z,5.80
2018-09-28T02:10:23.257Z,5.20
2018-09-28T02:12:59.164Z,5.00
2018-09-28T02:15:34.873Z,5.07
2018-09-28T02:18:10.685Z,5.37
2018-09-28T02:20:46.501Z,5.60
2018-09-28T02:23:22.283Z,6.03
2018-09-28T02:25:58.096Z,6.57
2018-09-28T02:28:33.900Z,6.30
2018-09-28T02:31:10.004Z,5.53
2018-09-28T02:33:45.889Z,5.30
2018-09-28T02:36:21.793Z,4.13
2018-09-28T02:38:58.058Z,4.97
2018-09-28T02:41:33.979Z,5.60
2018-09-28T02:44:09.777Z,5.47
2018-09-28T02:46:45.587Z,7.63
2018-09-28T07:02:50.591Z,25.12
2018-09-28T07:05:26.387Z,24.07
2018-09-28T07:08:02.252Z,20.87
2018-09-28T07:10:38.113Z,16.00
2018-09-28T07:13:13.926Z,18.70
2018-09-28T07:15:51.792Z,20.53
2018-09-28T07:18:27.581Z,22.60
2018-09-28T07:21:03.825Z,14.33
2018-09-28T07:23:39.905Z,13.77
2018-09-28T07:26:15.888Z,14.83
2018-09-28T07:28:51.796Z,22.67
2018-09-28T07:31:27.729Z,15.60
2018-09-28T07:34:04.003Z,13.47
2018-09-28T07:36:40.038Z,11.67
2018-09-28T07:39:18.688Z,11.30
2018-09-28T07:41:54.680Z,12.40
2018-09-28T07:44:30.756Z,12.10
2018-09-28T07:47:07.347Z,10.27
2018-09-28T07:49:43.317Z,10.27
2018-09-28T07:52:19.283Z,10.03
2018-09-28T07:54:55.088Z,9.07
2018-09-28T07:57:30.992Z,8.13
2018-09-28T08:00:06.826Z,8.13
2018-09-28T08:02:42.755Z,8.33
2018-09-28T08:05:18.533Z,8.07
2018-09-28T08:07:54.472Z,8.40
2018-09-28T08:10:30.283Z,9.97
2018-09-28T08:13:06.254Z,8.23
2018-09-28T08:15:42.330Z,6.93
2018-09-28T08:18:19.603Z,5.80
2018-09-28T08:20:55.945Z,5.17
2018-09-28T08:23:31.977Z,6.23
2018-09-28T08:26:08.116Z,6.70
2018-09-28T08:28:44.201Z,8.40
2018-09-28T08:31:20.265Z,6.13
2018-09-28T08:35:20.221Z,3.47
2018-09-28T08:37:55.973Z,2.60
2018-09-28T08:40:31.824Z,2.40
2018-09-28T08:43:07.669Z,2.50
2018-09-28T08:45:43.494Z,2.17
2018-09-28T08:48:19.442Z,2.20
2018-09-28T08:50:55.392Z,3.90
2018-09-28T08:53:31.352Z,2.63
2018-09-28T08:56:09.137Z,1.87
2018-09-28T08:58:45.792Z,1.60
2018-09-28T09:01:22.288Z,1.63
2018-09-28T09:03:58.102Z,2.03
2018-09-28T09:06:33.982Z,8.07
2018-09-28T09:09:12.029Z,2.90
2018-09-28T09:11:48.018Z,3.13
2018-09-28T09:14:23.811Z,2.57
2018-09-28T09:16:59.653Z,1.93
2018-09-28T09:19:35.467Z,2.67
2018-09-28T09:22:11.403Z,2.63
2018-09-28T09:24:47.389Z,3.37
2018-09-28T09:27:23.351Z,2.93
2018-09-28T09:29:59.192Z,2.20
2018-09-28T09:32:35.172Z,2.50
2018-09-28T09:35:11.031Z,3.43
2018-09-28T09:37:47.011Z,3.43
2018-09-28T09:40:22.816Z,2.40
2018-09-28T09:42:58.735Z,1.90
2018-09-28T09:45:34.517Z,2.27
2018-09-28T09:48:10.468Z,2.77
2018-09-28T09:50:46.264Z,2.07
2018-09-28T09:53:22.161Z,2.43
2018-09-28T09:55:58.095Z,2.33
2018-09-28T09:58:33.919Z,2.43
2018-09-28T10:01:14.174Z,2.13
2018-09-28T10:03:51.740Z,3.10
2018-09-28T10:06:27.576Z,2.50
2018-09-28T10:09:04.317Z,4.50
2018-09-28T10:11:40.101Z,2.00
2018-09-28T10:14:15.936Z,1.97
2018-09-28T10:16:51.754Z,1.80
2018-09-28T10:19:27.698Z,1.80
2018-09-28T10:22:03.610Z,2.07
2018-09-28T10:24:39.603Z,1.73
2018-09-28T10:27:15.524Z,2.07
2018-09-28T10:29:51.535Z,1.93
2018-09-28T10:32:27.309Z,1.73
2018-09-28T10:35:03.161Z,2.33
2018-09-28T10:37:38.946Z,1.30
2018-09-28T10:40:14.963Z,2.00
2018-09-28T10:42:50.889Z,1.70
2018-09-28T10:45:26.803Z,1.90
2018-09-28T10:48:02.854Z,1.63
2018-09-28T10:50:38.708Z,1.20
2018-09-28T10:53:14.525Z,1.30
2018-09-28T10:55:50.440Z,1.40
2018-09-28T10:58:26.423Z,1.73
2018-09-28T11:01:02.300Z,1.63
2018-09-28T11:03:38.181Z,1.40
2018-09-28T11:06:14.328Z,1.87
2018-09-28T11:08:50.148Z,1.53
2018-09-28T11:11:26.322Z,2.00
2018-09-28T11:14:02.121Z,1.40
2018-09-28T11:16:37.973Z,1.63
2018-09-28T11:19:13.921Z,2.00
2018-09-28T11:21:49.808Z,1.97
2018-09-28T11:24:26.657Z,1.83
2018-09-28T11:27:02.533Z,1.93
2018-09-28T11:29:38.768Z,1.80
2018-09-28T11:32:14.624Z,1.53
2018-09-28T11:34:50.414Z,1.53
2018-09-28T11:37:26.401Z,1.63
2018-09-28T11:40:02.215Z,2.10
2018-09-28T11:42:38.419Z,1.73
2018-09-28T11:45:14.360Z,1.63
2018-09-28T11:47:50.466Z,1.60
2018-09-28T11:50:26.208Z,1.63
2018-09-28T11:53:02.010Z,1.60
2018-09-28T11:55:37.957Z,2.20
2018-09-28T11:58:13.854Z,1.93
2018-09-28T12:00:50.012Z,1.73
2018-09-28T12:03:25.992Z,2.33
2018-09-28T12:06:02.108Z,1.90
2018-09-28T12:08:37.976Z,2.90
2018-09-28T12:11:13.722Z,2.60
2018-09-28T12:13:49.747Z,2.37
2018-09-28T12:16:25.562Z,2.40
2018-09-28T12:19:01.368Z,1.87
2018-09-28T12:21:37.592Z,2.50
2018-09-28T12:24:13.770Z,2.63
2018-09-28T12:26:50.048Z,3.07
2018-09-28T12:29:25.872Z,2.00
2018-09-28T12:32:01.804Z,1.90
2018-09-28T12:34:37.752Z,2.20
2018-09-28T12:37:13.542Z,1.50
2018-09-28T12:39:49.436Z,3.03
2018-09-28T12:42:25.811Z,1.27
2018-09-28T12:45:02.080Z,2.17
2018-09-28T12:47:38.024Z,1.30
2018-09-28T12:50:13.945Z,1.40
2018-09-28T12:52:50.088Z,2.53
2018-09-28T12:55:26.059Z,1.70
2018-09-28T12:58:02.016Z,1.50
2018-09-28T13:00:38.041Z,1.87
2018-09-28T13:03:14.126Z,1.40
2018-09-28T13:05:45.152Z,2.73
2018-09-28T13:08:16.024Z,2.70
2018-09-28T13:10:52.107Z,1.97
2018-09-28T13:13:28.073Z,1.87
2018-09-28T13:16:03.997Z,1.57
2018-09-28T13:18:41.595Z,1.87
2018-09-28T13:21:17.976Z,2.13
2018-09-28T13:23:54.165Z,2.00
2018-09-28T13:26:30.661Z,1.90
2018-09-28T13:29:06.859Z,2.63
2018-09-28T13:31:43.054Z,2.27
2018-09-28T13:34:18.814Z,1.73
2018-09-28T13:36:55.053Z,2.23
2018-09-28T13:39:30.880Z,2.03
2018-09-28T13:42:06.742Z,1.83
2018-09-28T13:44:42.599Z,2.10
2018-09-28T13:47:18.801Z,2.30
2018-09-28T13:49:54.619Z,2.60
2018-09-28T13:52:30.387Z,2.30
2018-09-28T13:55:07.115Z,2.27
2018-09-28T13:57:42.930Z,2.70
2018-09-28T14:00:18.764Z,1.87
2018-09-28T14:02:55.043Z,2.70
2018-09-28T14:05:30.975Z,2.20
2018-09-28T14:08:06.830Z,3.50
2018-09-28T14:10:42.935Z,2.60
2018-09-28T14:13:18.956Z,2.80
2018-09-28T14:15:54.868Z,2.33
2018-09-28T14:18:30.774Z,2.57
2018-09-28T14:21:07.033Z,2.70
2018-09-28T14:23:42.997Z,3.20
2018-09-28T14:26:18.858Z,3.17
2018-09-28T14:28:55.072Z,3.43
2018-09-28T14:31:31.126Z,3.00
2018-09-28T14:34:07.577Z,3.17
2018-09-28T14:36:43.589Z,5.53
2018-09-28T14:39:19.788Z,3.40
2018-09-28T14:41:55.563Z,5.37
2018-09-28T14:44:31.440Z,9.33
2018-09-28T14:47:07.694Z,8.20
2018-09-28T14:49:43.939Z,4.53
2018-09-28T14:52:19.712Z,4.03
2018-09-28T14:54:55.768Z,4.43
2018-09-28T14:57:31.873Z,4.60
2018-09-28T15:00:08.359Z,4.17
2018-09-28T15:02:44.670Z,3.23
2018-09-28T15:05:20.845Z,4.57
2018-09-28T15:07:56.717Z,3.33
2018-09-28T15:10:32.624Z,2.37
2018-09-28T15:13:08.786Z,2.90
2018-09-28T15:15:44.633Z,3.27
2018-09-28T15:18:20.473Z,3.33
2018-09-28T15:20:56.690Z,3.20
2018-09-28T15:23:32.617Z,3.30
2018-09-28T15:26:08.473Z,3.33
2018-09-28T15:28:44.244Z,4.00
2018-09-28T15:31:20.507Z,3.73
2018-09-28T15:33:56.412Z,4.20
2018-09-28T15:36:32.441Z,9.30
2018-09-28T15:39:10.844Z,13.00
2018-09-28T15:41:46.791Z,7.53
2018-09-28T15:44:22.625Z,10.03
2018-09-28T15:46:58.425Z,5.83
2018-09-28T15:49:34.216Z,3.57
2018-09-28T15:52:10.236Z,59.50
2018-09-28T15:54:46.114Z,73.27
2018-09-28T15:57:22.041Z,25.73
2018-09-28T15:59:57.861Z,19.63
2018-09-28T16:02:34.041Z,18.13
2018-09-28T16:05:09.973Z,11.43
2018-09-28T16:07:45.884Z,11.20
2018-09-28T16:10:21.649Z,10.03
2018-09-28T16:12:57.506Z,10.00
2018-09-28T16:15:33.876Z,11.23
2018-09-28T16:18:09.801Z,15.07
2018-09-28T16:20:45.756Z,17.37
2018-09-28T16:23:21.738Z,10.53
2018-09-28T16:25:57.516Z,14.27
2018-09-28T16:28:33.389Z,31.60
2018-09-28T16:31:09.229Z,41.07
2018-09-28T16:33:45.083Z,37.23
2018-09-28T16:36:20.851Z,30.40
2018-09-28T16:38:56.651Z,23.87
2018-09-28T16:41:32.607Z,24.03
2018-09-28T16:44:08.708Z,34.07
2018-09-28T16:46:44.567Z,30.50
2018-09-28T16:49:20.406Z,32.40
2018-09-28T16:51:56.205Z,32.57
2018-09-28T16:54:32.168Z,13.93
2018-09-28T16:57:07.882Z,16.00
2018-09-28T16:59:43.717Z,17.33
2018-09-28T17:02:19.518Z,18.23
2018-09-28T17:04:55.408Z,19.97
2018-09-28T17:07:33.989Z,18.37
2018-09-28T17:10:10.348Z,50.87
2018-09-28T17:12:46.114Z,16.10
2018-09-28T17:15:22.076Z,18.97
2018-09-28T17:17:57.946Z,19.57
2018-09-28T17:20:33.802Z,34.07
2018-09-28T17:23:09.614Z,30.70
2018-09-28T17:25:45.546Z,29.57
2018-09-28T17:28:21.520Z,26.50
2018-09-28T17:30:57.701Z,20.97
2018-09-28T17:33:33.508Z,20.47
2018-09-28T17:36:09.594Z,20.33
2018-09-28T17:38:45.377Z,12.73
2018-09-28T17:41:21.329Z,8.77
2018-09-28T17:43:57.476Z,8.63
2018-09-28T17:46:33.576Z,7.00
2018-09-28T17:49:09.470Z,4.60
2018-09-28T17:51:45.321Z,7.17
2018-09-28T17:54:21.087Z,5.57
2018-09-28T17:56:57.088Z,19.67
2018-09-28T17:59:33.104Z,22.70
2018-09-28T18:02:09.060Z,18.20
2018-09-28T18:04:44.841Z,30.97
2018-09-28T18:07:20.706Z,33.67
2018-09-28T18:09:56.500Z,30.27
2018-09-28T18:12:32.445Z,18.03
2018-09-28T18:15:08.402Z,25.80
2018-09-28T18:17:44.288Z,17.50
2018-09-28T18:20:23.113Z,14.50
2018-09-28T18:22:59.233Z,16.70
2018-09-28T18:25:35.223Z,17.00
2018-09-28T18:28:11.274Z,7.43
2018-09-28T18:30:47.388Z,10.67
2018-09-28T18:33:23.242Z,6.90
2018-09-28T18:35:59.413Z,7.77
2018-09-28T18:38:35.300Z,5.20
2018-09-28T18:41:11.077Z,5.20
2018-09-28T18:43:47.018Z,7.70
2018-09-28T18:46:22.974Z,4.93
2018-09-28T18:48:58.920Z,4.40
2018-09-28T18:51:34.781Z,5.17
2018-09-28T18:54:10.647Z,8.13
2018-09-28T18:56:47.471Z,18.70
2018-09-28T18:59:28.860Z,9.57
2018-09-28T19:02:05.154Z,15.63
2018-09-28T19:04:41.136Z,15.37
2018-09-28T19:07:17.106Z,12.93
2018-09-28T19:09:52.955Z,9.10
2018-09-28T19:12:28.790Z,7.37
2018-09-28T19:15:05.139Z,11.07
2018-09-28T19:17:35.418Z,6.50
2018-09-28T19:20:06.190Z,6.50
2018-09-28T19:22:36.456Z,6.80
2018-09-28T19:25:06.750Z,9.47
2018-09-28T19:27:37.058Z,12.63
2018-09-28T19:30:08.331Z,10.93
2018-09-28T19:32:39.291Z,11.00
2018-09-28T19:35:09.612Z,17.93
2018-09-28T19:37:39.926Z,12.90
2018-09-28T19:40:10.580Z,11.50
2018-09-28T19:42:40.850Z,8.77
2018-09-28T19:45:11.113Z,8.03
2018-09-28T19:47:41.455Z,6.47
2018-09-28T19:50:11.811Z,6.67
2018-09-28T19:52:42.070Z,7.17
2018-09-28T19:55:12.389Z,7.93
2018-09-28T19:57:42.700Z,11.77
2018-09-28T20:00:13.409Z,14.03
2018-09-28T20:02:43.695Z,12.83
2018-09-28T20:05:13.999Z,19.23
2018-09-28T20:07:44.373Z,17.07
2018-09-28T20:10:14.689Z,16.83
2018-09-28T20:12:45.008Z,10.73
2018-09-28T20:15:15.339Z,8.57
2018-09-28T20:17:45.606Z,9.93
2018-09-28T20:20:16.005Z,7.30
2018-09-28T20:22:46.422Z,7.50
2018-09-28T20:25:16.714Z,7.80
2018-09-28T20:27:46.992Z,8.43
2018-09-28T20:30:17.293Z,20.83
2018-09-28T20:32:47.620Z,22.57
2018-09-28T20:35:18.144Z,32.57
2018-09-28T20:37:48.415Z,36.03
2018-09-28T20:40:18.713Z,37.50
2018-09-28T20:42:49.085Z,35.20
2018-09-28T20:45:19.405Z,24.47
2018-09-28T20:47:49.689Z,14.53
2018-09-28T20:50:20.104Z,17.60
2018-09-28T20:52:50.449Z,16.67
2018-09-28T20:55:20.823Z,12.33
2018-09-28T20:57:51.563Z,11.20
2018-09-28T21:00:21.849Z,8.10
2018-09-28T21:02:52.165Z,10.30
2018-09-28T21:05:22.450Z,11.80
2018-09-28T21:07:53.293Z,9.83
2018-09-28T21:10:23.601Z,11.00
2018-09-28T21:12:53.909Z,11.40
2018-09-28T21:15:24.271Z,11.60
2018-09-28T21:17:54.569Z,42.90
2018-09-28T21:20:24.897Z,19.23
2018-09-28T21:22:55.226Z,12.70
2018-09-28T21:25:25.517Z,11.23
2018-09-28T21:27:55.833Z,9.53
2018-09-28T21:30:26.229Z,7.87
2018-09-28T21:32:56.518Z,6.10
2018-09-28T21:35:26.917Z,6.17
2018-09-28T21:37:57.439Z,5.80
2018-09-28T21:40:27.764Z,5.57
2018-09-28T21:42:58.168Z,5.70
2018-09-28T21:45:28.460Z,5.77
2018-09-28T21:47:58.795Z,4.80
2018-09-28T21:50:29.348Z,5.07
2018-09-28T21:52:59.753Z,7.57
2018-09-28T21:55:30.159Z,8.57
2018-09-28T21:58:00.459Z,7.77
2018-09-28T22:00:30.928Z,6.50
2018-09-28T22:03:01.251Z,5.50
2018-09-28T22:05:31.688Z,4.53
2018-09-28T22:08:02.050Z,3.60
2018-09-28T22:10:32.940Z,4.33
2018-09-28T22:13:03.249Z,4.90
2018-09-28T22:15:33.595Z,6.13
2018-09-28T22:18:04.433Z,6.73
2018-09-28T22:20:39.224Z,7.00
2018-09-28T22:23:09.788Z,7.17
2018-09-28T22:25:40.130Z,7.20
2018-09-28T22:28:13.980Z,7.50
2018-09-28T22:30:44.299Z,9.30
2018-09-28T22:33:14.610Z,7.17
2018-09-28T22:35:44.925Z,7.57
2018-09-28T22:38:15.309Z,8.60
2018-09-28T22:40:45.668Z,8.27
2018-09-28T22:43:15.928Z,9.43
2018-09-28T22:45:46.332Z,8.10
2018-09-28T22:48:16.644Z,6.90
2018-09-28T22:50:47.309Z,7.70
2018-09-28T22:53:17.601Z,7.60
2018-09-28T22:55:47.920Z,9.80
2018-09-28T22:58:18.233Z,7.27
2018-09-28T23:00:48.541Z,8.63
2018-09-28T23:03:18.854Z,7.93
2018-09-28T23:05:49.237Z,8.07
2018-09-28T23:08:19.496Z,9.27
2018-09-28T23:10:49.812Z,8.97
2018-09-28T23:13:20.143Z,7.53
2018-09-28T23:15:50.399Z,7.83
2018-09-28T23:18:20.669Z,7.93
2018-09-28T23:20:51.067Z,7.13
2018-09-28T23:23:21.792Z,7.77
2018-09-28T23:25:52.138Z,8.13
2018-09-28T23:28:22.408Z,8.43
2018-09-28T23:30:52.701Z,9.07
2018-09-28T23:33:23.015Z,8.10
2018-09-28T23:35:53.525Z,7.63
2018-09-28T23:38:23.801Z,7.47
2018-09-28T23:40:54.216Z,8.77
2018-09-28T23:43:24.514Z,9.13
2018-09-28T23:45:54.793Z,9.43
2018-09-28T23:48:25.144Z,8.23
2018-09-28T23:50:55.525Z,8.40
2018-09-28T23:53:25.798Z,7.13
2018-09-28T23:55:56.262Z,7.80
2018-09-28T23:58:26.530Z,7.97
